createdAt,value
2023-05-11T00:01:09.388Z,102089.75
2023-05-11T00:03:37.414Z,102094.27
2023-05-11T00:06:05.635Z,102092.17
2023-05-11T00:08:33.808Z,102092.68
2023-05-11T00:11:01.877Z,102089.52
2023-05-11T00:13:29.853Z,102089.84
2023-05-11T00:15:58.307Z,102088.42
2023-05-11T00:18:26.357Z,102087.01
2023-05-11T00:20:54.712Z,102090.85
2023-05-11T00:23:22.741Z,102092.23
2023-05-11T00:25:50.878Z,102090.48
2023-05-11T00:28:18.896Z,102094.50
2023-05-11T00:30:46.948Z,102096.59
2023-05-11T00:33:15.343Z,102096.92
2023-05-11T00:35:44.020Z,102098.14
2023-05-11T00:38:11.955Z,102101.27
2023-05-11T00:40:40.197Z,102099.33
2023-05-11T00:43:08.163Z,102103.84
2023-05-11T00:45:36.557Z,102101.73
2023-05-11T00:48:04.757Z,102105.56
2023-05-11T00:50:32.950Z,102106.95
2023-05-11T00:53:01.517Z,102109.40
2023-05-11T00:55:30.749Z,102107.30
2023-05-11T00:57:59.301Z,102106.23
2023-05-11T01:00:27.512Z,102105.73
2023-05-11T01:02:56.088Z,102106.96
2023-05-11T01:05:30.079Z,102109.40
2023-05-11T01:08:13.567Z,102111.31
2023-05-11T01:10:57.044Z,102113.04
2023-05-11T01:13:32.903Z,102112.67
2023-05-11T01:16:08.399Z,102113.16
2023-05-11T01:18:49.458Z,102110.66
2023-05-11T01:21:18.516Z,102109.07
2023-05-11T01:24:19.542Z,102108.70
2023-05-11T01:27:07.539Z,102109.52
2023-05-11T01:29:54.091Z,102112.12
2023-05-11T01:32:33.829Z,102110.86
2023-05-11T01:35:12.402Z,102113.83
2023-05-11T01:37:46.395Z,102113.12
2023-05-11T01:40:18.729Z,102119.56
2023-05-11T01:42:59.141Z,102121.80
2023-05-11T01:45:29.613Z,102124.23
2023-05-11T01:48:01.426Z,102125.27
2023-05-11T01:50:32.100Z,102123.49
2023-05-11T01:53:03.000Z,102124.73
2023-05-11T01:55:34.226Z,102125.59
2023-05-11T01:58:05.811Z,102131.15
2023-05-11T02:00:36.024Z,102131.85
2023-05-11T02:03:06.744Z,102132.36
2023-05-11T02:05:35.491Z,102131.13
2023-05-11T02:08:05.807Z,102128.83
2023-05-11T02:10:35.609Z,102127.75
2023-05-11T02:13:05.458Z,102128.59
2023-05-11T02:15:37.033Z,102128.05
2023-05-11T02:18:08.611Z,102129.24
2023-05-11T02:20:37.728Z,102131.31
2023-05-11T02:23:08.076Z,102132.84
2023-05-11T02:25:38.264Z,102130.15
2023-05-11T02:28:06.618Z,102130.44
2023-05-11T02:30:46.285Z,102131.13
2023-05-11T02:33:21.630Z,102131.44
2023-05-11T02:35:53.085Z,102136.11
2023-05-11T02:38:23.289Z,102136.11
2023-05-11T02:40:57.791Z,102135.77
2023-05-11T02:43:31.364Z,102135.91
2023-05-11T02:46:13.537Z,102138.17
2023-05-11T02:48:47.297Z,102136.27
2023-05-11T02:51:18.567Z,102136.28
2023-05-11T02:53:51.528Z,102137.50
2023-05-11T02:56:20.364Z,102137.14
2023-05-11T02:58:49.197Z,102139.23
2023-05-11T03:01:27.963Z,102138.17
2023-05-11T03:03:57.919Z,102141.45
2023-05-11T03:06:27.099Z,102139.16
2023-05-11T03:08:55.241Z,102137.23
2023-05-11T03:11:24.172Z,102138.64
2023-05-11T03:13:53.522Z,102136.70
2023-05-11T03:16:22.944Z,102136.00
2023-05-11T03:18:51.977Z,102137.23
2023-05-11T03:21:21.602Z,102140.38
2023-05-11T03:23:50.705Z,102138.99
2023-05-11T03:26:21.526Z,102140.77
2023-05-11T03:28:52.497Z,102142.71
2023-05-11T03:31:20.669Z,102147.79
2023-05-11T03:33:48.939Z,102147.98
2023-05-11T03:36:18.082Z,102148.55
2023-05-11T03:38:49.148Z,102148.59
2023-05-11T03:41:19.709Z,102149.31
2023-05-11T03:43:52.594Z,102154.73
2023-05-11T03:46:23.979Z,102154.44
2023-05-11T03:48:53.450Z,102154.27
2023-05-11T03:51:24.274Z,102156.56
2023-05-11T03:53:52.248Z,102159.97
2023-05-11T03:56:22.037Z,102160.59
2023-05-11T03:58:50.433Z,102164.14
2023-05-11T04:01:19.218Z,102161.73
2023-05-11T04:03:51.834Z,102159.35
2023-05-11T04:06:20.622Z,102161.50
2023-05-11T04:08:54.792Z,102163.65
2023-05-11T04:11:23.232Z,102164.97
2023-05-11T04:13:51.245Z,102162.04
2023-05-11T04:16:19.293Z,102166.48
2023-05-11T04:18:47.739Z,102161.41
2023-05-11T04:21:16.372Z,102157.60
2023-05-11T04:23:44.369Z,102161.60
2023-05-11T04:26:12.416Z,102161.88
2023-05-11T04:28:40.496Z,102161.23
2023-05-11T04:31:08.576Z,102161.79
2023-05-11T04:33:36.730Z,102160.16
2023-05-11T04:36:06.247Z,102156.84
2023-05-11T04:38:34.310Z,102158.70
2023-05-11T04:41:06.906Z,102162.73
2023-05-11T04:43:35.774Z,102158.90
2023-05-11T04:46:03.945Z,102161.27
2023-05-11T04:48:32.115Z,102158.08
2023-05-11T04:51:04.360Z,102156.95
2023-05-11T04:53:33.427Z,102155.88
2023-05-11T04:56:01.491Z,102157.22
2023-05-11T04:58:29.517Z,102158.67
2023-05-11T05:00:57.637Z,102157.44
2023-05-11T05:03:25.776Z,102161.33
2023-05-11T05:05:54.040Z,102163.16
2023-05-11T05:08:22.190Z,102162.75
2023-05-11T05:10:50.240Z,102164.30
2023-05-11T05:13:18.765Z,102167.67
2023-05-11T05:15:47.665Z,102169.82
2023-05-11T05:18:15.979Z,102170.75
2023-05-11T05:20:46.150Z,102170.27
2023-05-11T05:23:14.233Z,102173.48
2023-05-11T05:25:42.392Z,102178.05
2023-05-11T05:28:10.381Z,102177.38
2023-05-11T05:30:38.514Z,102178.09
2023-05-11T05:33:06.973Z,102182.89
2023-05-11T05:35:36.413Z,102183.48
2023-05-11T05:38:04.824Z,102180.93
2023-05-11T05:40:33.073Z,102183.52
2023-05-11T05:43:01.557Z,102182.70
2023-05-11T05:45:30.743Z,102185.89
2023-05-11T05:48:00.872Z,102186.56
2023-05-11T05:50:29.036Z,102190.30
2023-05-11T05:52:58.026Z,102193.52
2023-05-11T05:55:27.795Z,102194.13
2023-05-11T05:57:57.043Z,102194.15
2023-05-11T06:00:25.725Z,102192.09
2023-05-11T06:02:58.992Z,102198.12
2023-05-11T06:05:27.908Z,102199.47
2023-05-11T06:08:09.061Z,102197.06
2023-05-11T06:10:38.639Z,102198.42
2023-05-11T06:13:08.502Z,102195.77
2023-05-11T06:15:36.697Z,102208.64
2023-05-11T06:18:10.844Z,102206.03
2023-05-11T06:20:40.091Z,102206.92
2023-05-11T06:23:08.779Z,102207.50
2023-05-11T06:25:39.508Z,102208.09
2023-05-11T06:28:08.210Z,102202.79
2023-05-11T06:30:37.173Z,102203.39
2023-05-11T06:33:07.053Z,102207.27
2023-05-11T06:35:38.951Z,102209.81
2023-05-11T06:38:09.236Z,102205.91
2023-05-11T06:40:37.670Z,102202.93
2023-05-11T06:43:06.623Z,102201.52
2023-05-11T06:45:46.049Z,102206.77
2023-05-11T06:48:14.416Z,102202.55
2023-05-11T06:50:42.745Z,102201.70
2023-05-11T06:53:14.219Z,102202.02
2023-05-11T06:55:42.661Z,102202.34
2023-05-11T06:58:10.681Z,102205.30
2023-05-11T07:00:39.252Z,102204.05
2023-05-11T07:03:07.932Z,102201.52
2023-05-11T07:05:37.616Z,102205.79
2023-05-11T07:08:06.187Z,102208.76
2023-05-11T07:10:34.276Z,102207.02
2023-05-11T07:13:02.330Z,102197.79
2023-05-11T07:15:30.812Z,102201.69
2023-05-11T07:17:59.323Z,102201.77
2023-05-11T07:20:27.666Z,102204.28
2023-05-11T07:22:59.490Z,102208.54
2023-05-11T07:25:27.586Z,102211.92
2023-05-11T07:27:55.975Z,102208.51
2023-05-11T07:30:25.000Z,102210.77
2023-05-11T07:32:53.318Z,102209.52
2023-05-11T07:35:22.825Z,102205.33
2023-05-11T07:37:52.285Z,102212.24
2023-05-11T07:40:20.498Z,102208.20
2023-05-11T07:42:48.905Z,102209.16
2023-05-11T07:45:16.982Z,102207.07
2023-05-11T07:47:45.343Z,102205.05
2023-05-11T07:50:13.823Z,102207.71
2023-05-11T07:52:41.894Z,102212.33
2023-05-11T07:55:10.067Z,102202.05
2023-05-11T07:57:38.465Z,102201.86
2023-05-11T08:00:08.279Z,102205.70
2023-05-11T08:02:40.052Z,102206.69
2023-05-11T08:05:09.306Z,102209.64
2023-05-11T08:07:38.996Z,102206.41
2023-05-11T08:10:10.095Z,102207.41
2023-05-11T08:12:39.160Z,102212.52
2023-05-11T08:15:08.168Z,102210.86
2023-05-11T08:17:36.917Z,102200.90
2023-05-11T08:20:06.891Z,102205.59
2023-05-11T08:22:35.452Z,102206.59
2023-05-11T08:25:03.969Z,102203.69
2023-05-11T08:27:31.956Z,102201.86
2023-05-11T08:30:02.434Z,102202.46
2023-05-11T08:32:30.634Z,102193.38
2023-05-11T08:34:58.964Z,102202.09
2023-05-11T08:37:27.138Z,102196.52
2023-05-11T08:39:55.206Z,102197.73
2023-05-11T08:42:25.633Z,102198.82
2023-05-11T08:44:57.309Z,102198.45
2023-05-11T08:47:26.067Z,102198.75
2023-05-11T08:49:54.568Z,102203.80
2023-05-11T08:52:22.640Z,102199.07
2023-05-11T08:54:50.846Z,102199.48
2023-05-11T08:57:19.580Z,102201.84
2023-05-11T08:59:49.365Z,102200.63
2023-05-11T09:02:20.077Z,102197.16
2023-05-11T09:04:49.928Z,102197.08
2023-05-11T09:07:19.104Z,102196.61
2023-05-11T09:09:48.111Z,102198.25
2023-05-11T09:12:17.283Z,102195.08
2023-05-11T09:14:46.826Z,102196.01
2023-05-11T09:17:15.214Z,102192.94
2023-05-11T09:20:05.825Z,102199.19
2023-05-11T09:22:36.679Z,102196.43
2023-05-11T09:25:05.751Z,102200.77
2023-05-11T09:27:34.927Z,102195.21
2023-05-11T09:30:22.105Z,102196.36
2023-05-11T09:32:55.077Z,102195.88
2023-05-11T09:35:31.198Z,102195.95
2023-05-11T09:38:12.704Z,102195.33
2023-05-11T09:40:45.321Z,102190.23
2023-05-11T09:43:20.283Z,102185.75
2023-05-11T09:45:50.824Z,102191.86
2023-05-11T09:48:22.078Z,102185.06
2023-05-11T09:50:54.226Z,102190.61
2023-05-11T09:53:38.087Z,102192.01
2023-05-11T09:56:06.451Z,102186.73
2023-05-11T09:58:49.838Z,102176.31
2023-05-11T10:01:27.990Z,102184.33
2023-05-11T10:04:00.421Z,102179.04
2023-05-11T10:06:48.529Z,102182.84
2023-05-11T10:09:22.645Z,102172.45
2023-05-11T10:11:53.897Z,102181.36
2023-05-11T10:14:22.948Z,102173.04
2023-05-11T10:16:52.449Z,102167.30
2023-05-11T10:19:20.827Z,102167.94
2023-05-11T10:21:50.217Z,102173.20
2023-05-11T10:24:20.476Z,102168.52
2023-05-11T10:26:50.027Z,102158.53
2023-05-11T10:29:19.875Z,102156.76
2023-05-11T10:31:49.003Z,102152.81
2023-05-11T10:34:18.209Z,102153.43
2023-05-11T10:36:47.319Z,102158.03
2023-05-11T10:39:15.527Z,102158.96
2023-05-11T10:41:55.962Z,102150.92
2023-05-11T10:45:02.071Z,102145.19
2023-05-11T10:48:04.039Z,102141.48
2023-05-11T10:51:22.867Z,102131.36
2023-05-11T10:53:59.402Z,102133.23
2023-05-11T10:56:33.144Z,102132.86
2023-05-11T10:59:16.879Z,102126.50
2023-05-11T11:01:45.877Z,102132.30
2023-05-11T11:04:15.052Z,102136.52
2023-05-11T11:06:44.452Z,102130.41
2023-05-11T11:09:16.027Z,102135.46
2023-05-11T11:11:51.305Z,102133.48
2023-05-11T11:14:19.446Z,102132.10
2023-05-11T11:17:18.276Z,102132.59
2023-05-11T11:19:46.802Z,102127.30
2023-05-11T11:22:36.410Z,102130.08
2023-05-11T11:25:10.013Z,102123.14
2023-05-11T11:27:41.142Z,102122.20
2023-05-11T11:30:19.254Z,102126.20
2023-05-11T11:32:49.749Z,102122.60
2023-05-11T11:35:40.183Z,102116.92
2023-05-11T11:38:10.779Z,102118.67
2023-05-11T11:40:57.100Z,102125.16
2023-05-11T11:43:27.107Z,102110.80
2023-05-11T11:46:04.360Z,102110.78
2023-05-11T11:48:34.413Z,102120.56
2023-05-11T11:51:02.985Z,102118.45
2023-05-11T11:53:38.204Z,102113.61
2023-05-11T11:56:15.947Z,102117.77
2023-05-11T11:58:46.866Z,102117.42
2023-05-11T12:01:23.237Z,102116.27
2023-05-11T12:04:20.533Z,102114.32
2023-05-11T12:06:57.909Z,102106.08
2023-05-11T12:09:27.117Z,102111.16
2023-05-11T12:11:57.518Z,102112.52
2023-05-11T12:14:27.698Z,102112.30
2023-05-11T12:17:03.505Z,102110.21
2023-05-11T12:19:31.724Z,102110.45
2023-05-11T12:22:00.311Z,102106.39
2023-05-11T12:24:28.378Z,102105.66
2023-05-11T12:26:57.605Z,102101.09
2023-05-11T12:29:26.171Z,102104.02
2023-05-11T12:31:54.400Z,102119.65
2023-05-11T12:34:23.180Z,102105.48
2023-05-11T12:36:52.983Z,102101.64
2023-05-11T12:39:26.647Z,102102.13
2023-05-11T12:41:56.771Z,102110.13
2023-05-11T12:44:26.766Z,102100.94
2023-05-11T12:46:55.478Z,102101.56
2023-05-11T12:49:26.432Z,102099.71
2023-05-11T12:51:55.198Z,102103.36
2023-05-11T12:54:28.550Z,102096.83
2023-05-11T12:56:56.988Z,102091.80
2023-05-11T12:59:32.393Z,102087.23
2023-05-11T13:02:06.817Z,102095.77
2023-05-11T13:04:34.951Z,102087.16
2023-05-11T13:07:03.518Z,102080.92
2023-05-11T13:09:31.687Z,102084.27
2023-05-11T13:12:17.747Z,102086.67
2023-05-11T13:14:49.964Z,102079.34
2023-05-11T13:17:35.291Z,102085.33
2023-05-11T13:20:26.586Z,102077.33
2023-05-11T13:23:09.611Z,102075.13
2023-05-11T13:25:47.349Z,102068.00
2023-05-11T13:28:17.113Z,102066.34
2023-05-11T13:30:46.873Z,102063.39
2023-05-11T13:33:15.260Z,102066.14
2023-05-11T13:35:44.908Z,102068.29
2023-05-11T13:38:13.308Z,102061.98
2023-05-11T13:40:41.557Z,102061.63
2023-05-11T13:43:09.630Z,102059.52
2023-05-11T13:45:40.244Z,102059.88
2023-05-11T13:48:08.734Z,102058.46
2023-05-11T13:50:37.019Z,102064.02
2023-05-11T13:53:05.091Z,102070.16
2023-05-11T13:55:33.265Z,102063.67
2023-05-11T13:58:02.265Z,102058.51
2023-05-11T14:00:30.536Z,102053.01
2023-05-11T14:02:58.759Z,102054.98
2023-05-11T14:05:26.876Z,102053.30
2023-05-11T14:07:55.048Z,102048.59
2023-05-11T14:10:25.177Z,102052.89
2023-05-11T14:12:53.389Z,102050.33
2023-05-11T14:15:21.741Z,102047.34
2023-05-11T14:17:50.158Z,102041.58
2023-05-11T14:20:18.276Z,102043.04
2023-05-11T14:22:46.527Z,102039.35
2023-05-11T14:25:14.847Z,102042.90
2023-05-11T14:27:44.140Z,102039.52
2023-05-11T14:30:12.360Z,102036.54
2023-05-11T14:32:40.320Z,102040.28
2023-05-11T14:35:08.677Z,102033.25
2023-05-11T14:37:37.560Z,102030.15
2023-05-11T14:40:07.053Z,102032.59
2023-05-11T14:42:35.112Z,102031.02
2023-05-11T14:45:04.242Z,102032.73
2023-05-11T14:47:32.468Z,102038.98
2023-05-11T14:50:00.643Z,102034.18
2023-05-11T14:52:28.716Z,102035.09
2023-05-11T14:54:56.673Z,102037.11
2023-05-11T14:57:24.776Z,102035.14
2023-05-11T14:59:59.511Z,102031.22
2023-05-11T15:02:29.260Z,102031.54
2023-05-11T15:04:57.374Z,102030.23
2023-05-11T15:07:25.639Z,102035.89
2023-05-11T15:09:54.114Z,102035.95
2023-05-11T15:12:22.897Z,102041.61
2023-05-11T15:14:51.103Z,102034.93
2023-05-11T15:17:19.709Z,102037.08
2023-05-11T15:19:47.700Z,102030.08
2023-05-11T15:22:17.495Z,102036.95
2023-05-11T15:24:45.620Z,102037.67
2023-05-11T15:27:13.789Z,102033.40
2023-05-11T15:29:41.929Z,102030.02
2023-05-11T15:32:14.333Z,102032.48
2023-05-11T15:34:58.051Z,102034.36
2023-05-11T15:37:27.860Z,102033.83
2023-05-11T15:39:56.428Z,102033.81
2023-05-11T15:42:24.788Z,102040.70
2023-05-11T15:44:52.801Z,102035.96
2023-05-11T15:47:21.031Z,102037.10
2023-05-11T15:49:49.260Z,102041.73
2023-05-11T15:52:17.554Z,102038.14
2023-05-11T15:54:45.664Z,102028.95
2023-05-11T15:57:13.680Z,102040.11
2023-05-11T15:59:41.648Z,102040.45
2023-05-11T16:02:09.910Z,102042.63
2023-05-11T16:04:38.010Z,102038.20
2023-05-11T16:07:06.107Z,102042.83
2023-05-11T16:09:34.236Z,102040.98
2023-05-11T16:12:02.289Z,102043.30
2023-05-11T16:14:30.259Z,102040.25
2023-05-11T16:17:01.847Z,102041.82
2023-05-11T16:19:30.409Z,102044.52
2023-05-11T16:21:58.471Z,102045.59
2023-05-11T16:24:27.043Z,102043.65
2023-05-11T16:26:55.116Z,102048.09
2023-05-11T16:29:23.106Z,102047.07
2023-05-11T16:31:51.175Z,102041.63
2023-05-11T16:34:19.429Z,102045.02
2023-05-11T16:36:47.498Z,102044.89
2023-05-11T16:39:15.593Z,102045.59
2023-05-11T16:41:43.644Z,102046.34
2023-05-11T16:44:11.531Z,102042.02
2023-05-11T16:46:39.648Z,102049.12
2023-05-11T16:49:07.858Z,102048.96
2023-05-11T16:51:35.965Z,102048.84
2023-05-11T16:54:03.962Z,102045.67
2023-05-11T16:56:31.963Z,102043.72
2023-05-11T16:59:00.288Z,102045.84
2023-05-11T17:01:28.697Z,102046.56
2023-05-11T17:03:56.769Z,102049.73
2023-05-11T17:06:27.016Z,102050.19
2023-05-11T17:08:55.119Z,102052.79
2023-05-11T17:11:23.930Z,102053.42
2023-05-11T17:13:51.857Z,102055.98
2023-05-11T17:16:19.946Z,102050.90
2023-05-11T17:18:48.003Z,102051.47
2023-05-11T17:21:17.377Z,102056.19
2023-05-11T17:23:45.456Z,102058.23
2023-05-11T17:26:13.854Z,102057.76
2023-05-11T17:28:43.234Z,102061.36
2023-05-11T17:31:13.810Z,102063.20
2023-05-11T17:33:42.881Z,102065.41
2023-05-11T17:36:11.916Z,102065.65
2023-05-11T17:38:40.016Z,102065.55
2023-05-11T17:41:09.147Z,102066.20
2023-05-11T17:43:38.214Z,102069.34
2023-05-11T17:46:06.486Z,102071.08
2023-05-11T17:48:34.567Z,102074.17
2023-05-11T17:51:02.688Z,102077.65
2023-05-11T17:53:31.006Z,102079.23
2023-05-11T17:55:59.831Z,102080.79
2023-05-11T17:58:27.906Z,102077.95
2023-05-11T18:00:56.205Z,102081.26
2023-05-11T18:03:24.268Z,102087.55
2023-05-11T18:05:52.689Z,102089.49
2023-05-11T18:08:20.662Z,102091.91
2023-05-11T18:10:48.621Z,102097.39
2023-05-11T18:13:17.642Z,102095.92
2023-05-11T18:15:47.463Z,102095.33
2023-05-11T18:18:15.998Z,102099.52
2023-05-11T18:20:46.762Z,102104.73
2023-05-11T18:23:14.813Z,102107.86
2023-05-11T18:25:42.903Z,102110.82
2023-05-11T18:28:10.998Z,102110.74
2023-05-11T18:30:39.236Z,102114.55
2023-05-11T18:33:07.315Z,102118.40
2023-05-11T18:35:35.467Z,102121.68
2023-05-11T18:38:05.094Z,102121.08
2023-05-11T18:40:33.355Z,102127.73
2023-05-11T18:43:01.749Z,102126.77
2023-05-11T18:45:30.926Z,102129.54
2023-05-11T18:47:59.139Z,102134.92
2023-05-11T18:50:29.731Z,102135.73
2023-05-11T18:52:57.972Z,102139.02
2023-05-11T18:55:29.062Z,102139.64
2023-05-11T18:57:59.572Z,102143.61
2023-05-11T19:00:28.293Z,102148.63
2023-05-11T19:02:56.543Z,102153.63
2023-05-11T19:05:24.630Z,102151.92
2023-05-11T19:07:52.772Z,102154.11
2023-05-11T19:10:22.877Z,102161.05
2023-05-11T19:12:51.333Z,102158.13
2023-05-11T19:15:19.644Z,102160.79
2023-05-11T19:17:47.666Z,102162.42
2023-05-11T19:20:16.037Z,102163.19
2023-05-11T19:22:44.057Z,102165.52
2023-05-11T19:25:12.062Z,102169.80
2023-05-11T19:27:42.968Z,102167.39
2023-05-11T19:30:11.264Z,102178.18
2023-05-11T19:32:39.463Z,102181.06
2023-05-11T19:35:08.924Z,102183.39
2023-05-11T19:37:37.090Z,102187.45
2023-05-11T19:40:38.059Z,102185.36
2023-05-11T19:42:54.056Z,102188.76
2023-05-11T19:45:22.087Z,102191.61
2023-05-11T19:47:50.118Z,102190.95
2023-05-11T19:50:20.467Z,102194.67
2023-05-11T19:52:49.865Z,102197.88
2023-05-11T19:55:17.953Z,102199.30
2023-05-11T19:57:45.928Z,102198.99
2023-05-11T20:00:14.190Z,102200.78
2023-05-11T20:02:42.469Z,102199.58
2023-05-11T20:05:10.671Z,102197.68
2023-05-11T20:07:39.129Z,102202.27
2023-05-11T20:10:08.104Z,102204.40
2023-05-11T20:12:38.092Z,102198.79
2023-05-11T20:15:08.511Z,102200.21
2023-05-11T20:17:37.123Z,102203.73
2023-05-11T20:20:06.328Z,102201.09
2023-05-11T20:22:34.410Z,102204.77
2023-05-11T20:25:03.810Z,102207.60
2023-05-11T20:27:31.982Z,102206.21
2023-05-11T20:29:59.902Z,102207.45
2023-05-11T20:32:27.869Z,102211.68
2023-05-11T20:34:56.001Z,102210.64
2023-05-11T20:37:24.265Z,102213.98
2023-05-11T20:39:52.230Z,102219.81
2023-05-11T20:42:20.126Z,102223.17
2023-05-11T20:44:51.345Z,102225.65
2023-05-11T20:47:19.822Z,102220.56
2023-05-11T20:49:48.005Z,102223.92
2023-05-11T20:52:17.821Z,102226.39
2023-05-11T20:54:46.301Z,102229.58
2023-05-11T20:57:14.273Z,102232.91
2023-05-11T21:02:14.203Z,102233.82
2023-05-11T21:04:42.360Z,102235.94
2023-05-11T21:07:10.372Z,102232.08
2023-05-11T21:09:38.310Z,102234.02
2023-05-11T21:12:07.109Z,102234.02
2023-05-11T21:14:35.052Z,102238.08
2023-05-11T21:17:03.158Z,102239.85
2023-05-11T21:19:31.201Z,102240.04
2023-05-11T21:21:59.269Z,102243.55
2023-05-11T21:24:27.337Z,102245.49
2023-05-11T21:26:55.399Z,102250.08
2023-05-11T21:29:23.373Z,102248.33
2023-05-11T21:31:51.856Z,102248.16
2023-05-11T21:34:19.795Z,102251.67
2023-05-11T21:36:47.866Z,102246.58
2023-05-11T21:39:16.072Z,102251.86
2023-05-11T21:41:44.134Z,102250.63
2023-05-11T21:44:12.322Z,102252.39
2023-05-11T21:46:40.311Z,102252.21
2023-05-11T21:49:08.240Z,102259.23
2023-05-11T21:51:36.212Z,102256.27
2023-05-11T21:54:04.279Z,102260.13
2023-05-11T21:56:32.353Z,102263.99
2023-05-11T21:59:00.439Z,102262.41
2023-05-11T22:01:28.550Z,102265.75
2023-05-11T22:03:57.074Z,102265.93
2023-05-11T22:06:25.248Z,102269.44
2023-05-11T22:08:53.838Z,102275.22
2023-05-11T22:11:21.824Z,102274.50
2023-05-11T22:13:49.869Z,102278.89
2023-05-11T22:16:17.853Z,102281.16
2023-05-11T22:18:46.103Z,102280.99
2023-05-11T22:21:14.389Z,102282.74
2023-05-11T22:23:42.673Z,102287.30
2023-05-11T22:26:10.744Z,102289.06
2023-05-11T22:28:38.815Z,102287.65
2023-05-11T22:31:08.078Z,102290.11
2023-05-11T22:33:36.179Z,102292.38
2023-05-11T22:36:04.374Z,102294.48
2023-05-11T22:38:34.360Z,102294.14
2023-05-11T22:41:02.536Z,102296.40
2023-05-11T22:43:30.715Z,102297.64
2023-05-11T22:45:58.752Z,102295.87
2023-05-11T22:48:26.850Z,102300.61
2023-05-11T22:50:54.909Z,102300.59
2023-05-11T22:53:23.320Z,102297.44
2023-05-11T22:55:51.306Z,102300.95
2023-05-11T22:58:19.337Z,102299.89
2023-05-11T23:00:47.562Z,102304.45
2023-05-11T23:03:15.635Z,102304.61
2023-05-11T23:05:43.646Z,102309.17
2023-05-11T23:08:11.619Z,102307.95
2023-05-11T23:10:39.590Z,102306.19
2023-05-11T23:13:10.176Z,102310.74
2023-05-11T23:15:38.297Z,102312.85
2023-05-11T23:18:06.784Z,102313.70
2023-05-11T23:20:34.848Z,102314.92
2023-05-11T23:23:02.850Z,102314.22
2023-05-11T23:25:31.283Z,102315.42
2023-05-11T23:27:59.460Z,102313.14
2023-05-11T23:30:27.526Z,102314.88
2023-05-11T23:32:55.551Z,102318.38
2023-05-11T23:35:23.667Z,102315.73
2023-05-11T23:37:51.748Z,102315.20
2023-05-11T23:40:20.059Z,102315.89
2023-05-11T23:42:48.194Z,102313.77
2023-05-11T23:45:16.461Z,102312.36
2023-05-11T23:47:44.563Z,102311.14
2023-05-11T23:50:13.301Z,102312.17
2023-05-11T23:52:41.296Z,102313.90
2023-05-11T23:55:10.114Z,102317.05
2023-05-11T23:57:38.147Z,102315.81
